Time;durP1;ratioP1;P1;durP2;ratioP2;P2;SDS_P1;SDS_P2;PMS_P1;PMS_P2;Temp;Humidity;BMP_temperature;BMP_pressure;BME280_temperature;BME280_humidity;BME280_pressure;Samples;Min_cycle;Max_cycle;Signal;HPM_P1;HPM_P2
2022/05/31 00:01:45;;;;;;;1.67;1.40;;;7.70;99.90;;;;;;5015076;28;20215;-78
2022/05/31 00:04:11;;;;;;;1.80;1.50;;;7.40;99.90;;;;;;5014454;28;20184;-78
2022/05/31 00:06:36;;;;;;;1.50;1.30;;;7.40;99.90;;;;;;5030560;28;20180;-78
2022/05/31 00:09:03;;;;;;;2.13;1.60;;;7.50;99.90;;;;;;4997406;28;20189;-78
2022/05/31 00:11:28;;;;;;;1.87;1.57;;;7.50;99.90;;;;;;5013457;28;20213;-78
2022/05/31 00:13:54;;;;;;;2.13;1.90;;;7.60;99.90;;;;;;5030030;28;20178;-78
2022/05/31 00:16:19;;;;;;;2.23;1.40;;;7.70;99.90;;;;;;4997405;28;20175;-78
2022/05/31 00:18:45;;;;;;;1.93;1.60;;;7.70;99.90;;;;;;4997572;28;20182;-78
2022/05/31 00:21:11;;;;;;;2.70;1.47;;;7.70;99.90;;;;;;4997574;28;20291;-78
2022/05/31 00:23:40;;;;;;;2.87;1.43;;;7.70;99.90;;;;;;5013744;28;20238;-78
2022/05/31 00:26:05;;;;;;;1.90;1.70;;;7.60;99.90;;;;;;5030272;28;20202;-78
2022/05/31 00:28:31;;;;;;;1.70;1.60;;;7.50;99.90;;;;;;4997332;28;20210;-78
2022/05/31 00:30:57;;;;;;;1.43;1.20;;;7.40;99.90;;;;;;4997432;28;20203;-78
2022/05/31 00:33:24;;;;;;;3.10;1.50;;;7.40;99.90;;;;;;5013725;28;20182;-77
2022/05/31 00:35:51;;;;;;;1.67;1.50;;;7.30;99.90;;;;;;5013406;28;20172;-78
2022/05/31 00:38:17;;;;;;;2.83;1.60;;;7.30;99.90;;;;;;5014675;28;20754;-78
2022/05/31 00:40:43;;;;;;;1.47;1.37;;;7.10;99.90;;;;;;5029864;28;20259;-78
2022/05/31 00:43:12;;;;;;;2.30;1.50;;;7.10;99.90;;;;;;5013076;28;20265;-78
2022/05/31 00:46:02;;;;;;;1.60;1.50;;;7.00;99.90;;;;;;5030177;28;20248;-78
2022/05/31 00:48:33;;;;;;;1.83;1.40;;;6.90;99.90;;;;;;5013687;28;20193;-78
2022/05/31 00:51:08;;;;;;;2.73;1.63;;;6.90;99.90;;;;;;5013543;28;20209;-78
2022/05/31 00:53:43;;;;;;;1.40;1.30;;;6.80;99.90;;;;;;5013235;28;20273;-78
2022/05/31 00:56:22;;;;;;;1.47;1.37;;;6.70;99.90;;;;;;5030101;28;20633;-78
2022/05/31 00:58:54;;;;;;;2.00;1.50;;;6.90;99.90;;;;;;5029605;28;20174;-78
2022/05/31 01:01:20;;;;;;;1.77;1.50;;;6.70;99.90;;;;;;5013787;28;20543;-78
2022/05/31 01:03:47;;;;;;;2.43;1.60;;;6.60;99.90;;;;;;5013065;28;20179;-78
2022/05/31 01:06:13;;;;;;;1.70;1.60;;;6.50;99.90;;;;;;5029832;28;20194;-78
2022/05/31 01:08:45;;;;;;;2.03;1.60;;;6.50;99.90;;;;;;5012857;28;20559;-78
2022/05/31 01:11:15;;;;;;;1.87;1.50;;;6.60;99.90;;;;;;5013352;28;20246;-78
2022/05/31 01:13:41;;;;;;;2.53;1.60;;;6.60;99.90;;;;;;5029196;28;20664;-78
2022/05/31 01:16:11;;;;;;;2.00;1.80;;;6.70;99.90;;;;;;5012722;28;20201;-78
2022/05/31 01:18:37;;;;;;;1.67;1.57;;;6.80;99.90;;;;;;5013351;28;20179;-78
2022/05/31 01:21:03;;;;;;;2.50;1.70;;;6.80;99.90;;;;;;5029104;28;20179;-78
2022/05/31 01:23:37;;;;;;;2.23;1.53;;;6.90;99.90;;;;;;5012951;28;20209;-78
2022/05/31 01:26:12;;;;;;;1.80;1.70;;;7.00;99.90;;;;;;5029002;28;20739;-78
2022/05/31 01:29:10;;;;;;;1.87;1.53;;;7.10;99.90;;;;;;5029480;28;20177;-78
2022/05/31 01:31:48;;;;;;;1.73;1.63;;;7.20;99.90;;;;;;5028012;28;20218;-78
2022/05/31 01:34:34;;;;;;;2.83;1.67;;;7.40;99.90;;;;;;5028876;28;20177;-78
2022/05/31 01:37:00;;;;;;;2.83;1.63;;;7.40;99.90;;;;;;5028812;28;20175;-78
2022/05/31 01:39:38;;;;;;;2.00;1.53;;;7.30;99.90;;;;;;4996041;28;20182;-78
2022/05/31 01:42:32;;;;;;;2.03;1.83;;;6.90;99.90;;;;;;5028506;28;20208;-77
2022/05/31 01:45:09;;;;;;;2.10;1.67;;;6.90;99.90;;;;;;5028884;28;20183;-78
2022/05/31 01:47:36;;;;;;;2.27;1.67;;;6.80;99.90;;;;;;5012178;28;20214;-78
2022/05/31 01:50:05;;;;;;;1.80;1.70;;;6.80;99.90;;;;;;5011847;28;20221;-78
2022/05/31 01:52:32;;;;;;;1.87;1.60;;;6.90;99.90;;;;;;5028742;28;20198;-77
2022/05/31 01:54:59;;;;;;;2.40;1.70;;;6.90;99.90;;;;;;5012499;28;20179;-78
2022/05/31 01:57:25;;;;;;;2.37;1.73;;;7.00;99.90;;;;;;5012351;28;20187;-77
2022/05/31 01:59:56;;;;;;;2.10;1.90;;;6.80;99.90;;;;;;5012218;28;20189;-78
2022/05/31 02:02:22;;;;;;;1.77;1.60;;;6.80;99.90;;;;;;5013820;28;20211;-78
2022/05/31 02:04:48;;;;;;;2.60;1.60;;;6.60;99.90;;;;;;5028599;28;20181;-78
2022/05/31 02:07:16;;;;;;;2.77;1.90;;;6.60;99.90;;;;;;4995803;28;20183;-78
2022/05/31 02:09:44;;;;;;;2.50;1.73;;;6.70;99.90;;;;;;5011935;28;20178;-78
2022/05/31 02:12:12;;;;;;;1.80;1.70;;;6.60;99.90;;;;;;4995431;28;20205;-78
2022/05/31 02:14:38;;;;;;;1.70;1.60;;;6.60;99.90;;;;;;5027594;28;20265;-78
2022/05/31 02:17:05;;;;;;;1.73;1.60;;;6.60;99.90;;;;;;4995421;28;20193;-78
2022/05/31 02:19:31;;;;;;;1.97;1.60;;;6.40;99.90;;;;;;5011582;28;20210;-78
2022/05/31 02:22:04;;;;;;;2.43;1.80;;;6.40;99.90;;;;;;5027752;28;20202;-78
2022/05/31 02:24:30;;;;;;;2.60;1.80;;;6.40;99.90;;;;;;5012280;28;20244;-78
2022/05/31 02:26:57;;;;;;;2.17;1.73;;;6.50;99.90;;;;;;5011449;28;20175;-78
2022/05/31 02:29:25;;;;;;;1.97;1.60;;;6.30;99.90;;;;;;4995229;28;20224;-77
2022/05/31 02:31:51;;;;;;;1.80;1.63;;;6.20;99.90;;;;;;5011587;28;20273;-78
2022/05/31 02:34:20;;;;;;;3.13;1.97;;;6.30;99.90;;;;;;4995025;28;20181;-78
2022/05/31 02:36:47;;;;;;;2.53;1.60;;;6.30;99.90;;;;;;5011427;28;20190;-77
2022/05/31 02:39:12;;;;;;;2.00;1.80;;;6.40;99.90;;;;;;5011149;28;20266;-77
2022/05/31 02:41:38;;;;;;;2.23;1.60;;;6.50;99.90;;;;;;5027171;28;20336;-77
2022/05/31 02:44:05;;;;;;;2.57;1.70;;;6.60;99.90;;;;;;5010969;28;20568;-77
2022/05/31 02:46:31;;;;;;;3.93;1.60;;;6.50;99.90;;;;;;5011411;28;20190;-77
2022/05/31 02:48:56;;;;;;;2.60;1.60;;;6.40;99.90;;;;;;5011271;28;20185;-77
2022/05/31 02:51:22;;;;;;;1.83;1.67;;;6.30;99.90;;;;;;4994587;28;20220;-77
2022/05/31 02:53:48;;;;;;;2.73;1.97;;;6.10;99.90;;;;;;5010757;28;20186;-78
2022/05/31 02:56:13;;;;;;;2.40;1.80;;;6.10;99.90;;;;;;5010715;28;20209;-77
2022/05/31 02:58:39;;;;;;;1.93;1.57;;;6.20;99.90;;;;;;5011063;28;20289;-77
2022/05/31 03:01:19;;;;;;;2.33;1.73;;;6.20;99.90;;;;;;4996424;28;20224;-77
2022/05/31 03:03:45;;;;;;;2.00;1.80;;;6.30;99.90;;;;;;5030793;28;20176;-77
2022/05/31 03:06:11;;;;;;;3.03;1.60;;;6.30;99.90;;;;;;4998123;28;20205;-77
2022/05/31 03:08:36;;;;;;;1.70;1.60;;;6.30;99.90;;;;;;4998080;28;20718;-77
2022/05/31 03:11:04;;;;;;;2.20;1.77;;;6.20;99.90;;;;;;5014057;28;20214;-77
2022/05/31 03:13:30;;;;;;;2.13;1.90;;;6.20;99.90;;;;;;5030735;28;20664;-77
2022/05/31 03:15:58;;;;;;;2.53;1.70;;;6.20;99.90;;;;;;5013960;28;20182;-77
2022/05/31 03:18:30;;;;;;;2.53;1.80;;;6.30;99.90;;;;;;5030776;28;20174;-77
2022/05/31 03:20:58;;;;;;;2.37;1.90;;;6.20;99.90;;;;;;5030613;28;20226;-77
2022/05/31 03:23:30;;;;;;;2.43;1.70;;;6.20;99.90;;;;;;5030677;28;20251;-78
2022/05/31 03:26:00;;;;;;;2.57;1.90;;;6.30;99.90;;;;;;5030429;28;20222;-78
2022/05/31 03:28:26;;;;;;;2.13;1.93;;;6.50;99.90;;;;;;5014237;28;20182;-77
2022/05/31 03:30:52;;;;;;;2.00;1.80;;;6.60;99.90;;;;;;4997937;28;20204;-78
2022/05/31 03:33:18;;;;;;;1.90;1.70;;;6.70;99.90;;;;;;5013971;28;20175;-77
2022/05/31 03:35:44;;;;;;;2.63;1.87;;;6.70;99.90;;;;;;4997705;28;20182;-78
2022/05/31 03:38:09;;;;;;;2.53;1.90;;;6.70;99.90;;;;;;5014097;28;20181;-77
2022/05/31 03:43:19;;;;;;;1.90;1.80;;;6.70;99.90;;;;;;5014197;28;20209;-78
2022/05/31 03:45:44;;;;;;;2.77;2.27;;;6.60;99.90;;;;;;5013994;28;20664;-77
2022/05/31 03:48:11;;;;;;;2.23;2.03;;;6.60;99.90;;;;;;4997506;28;20256;-77
2022/05/31 03:50:38;;;;;;;4.30;2.00;;;6.70;99.90;;;;;;5030104;28;20208;-77
2022/05/31 03:53:05;;;;;;;2.87;2.27;;;6.70;99.90;;;;;;4997321;28;20340;-77
2022/05/31 03:55:31;;;;;;;2.40;1.93;;;6.60;99.90;;;;;;5030432;28;20178;-78
2022/05/31 03:57:57;;;;;;;3.30;2.07;;;6.40;99.90;;;;;;5013897;28;20674;-77
2022/05/31 04:00:23;;;;;;;2.77;1.80;;;6.20;99.90;;;;;;5013898;28;20228;-78
2022/05/31 04:02:48;;;;;;;2.60;2.10;;;6.20;99.90;;;;;;5013447;28;20747;-77
2022/05/31 04:05:14;;;;;;;2.23;1.90;;;6.20;99.90;;;;;;5013566;28;20189;-77
2022/05/31 04:07:40;;;;;;;2.80;2.30;;;6.20;99.90;;;;;;5013514;28;20554;-77
2022/05/31 04:10:07;;;;;;;2.87;2.10;;;6.20;99.90;;;;;;4997506;28;20210;-78
2022/05/31 04:12:38;;;;;;;3.27;2.00;;;6.10;99.90;;;;;;5013365;28;20207;-77
2022/05/31 04:15:05;;;;;;;4.60;2.20;;;6.10;99.90;;;;;;5013070;28;20175;-78
2022/05/31 04:17:31;;;;;;;2.30;2.10;;;6.00;99.90;;;;;;5013720;28;20658;-77
2022/05/31 04:19:57;;;;;;;2.27;2.07;;;5.90;99.90;;;;;;5029729;28;20657;-77
2022/05/31 04:22:22;;;;;;;2.80;2.00;;;6.00;99.90;;;;;;5029286;28;20195;-77
2022/05/31 04:24:53;;;;;;;3.10;1.93;;;6.10;99.90;;;;;;5029749;28;20173;-77
2022/05/31 04:27:19;;;;;;;2.40;2.17;;;6.10;99.90;;;;;;5013758;28;20184;-77
2022/05/31 04:29:45;;;;;;;2.33;2.13;;;6.20;99.90;;;;;;5014384;28;20166;-77
2022/05/31 04:32:11;;;;;;;4.17;2.03;;;6.30;99.90;;;;;;4996393;28;20262;-77
2022/05/31 04:34:37;;;;;;;3.13;2.10;;;6.50;99.90;;;;;;5029628;28;20521;-77
2022/05/31 04:37:03;;;;;;;2.17;1.83;;;6.70;99.90;;;;;;5013203;28;20674;-77
2022/05/31 04:39:28;;;;;;;2.40;2.20;;;6.80;99.90;;;;;;5012826;28;20255;-77
2022/05/31 04:41:54;;;;;;;2.30;2.10;;;6.90;99.90;;;;;;5012552;28;20227;-77
2022/05/31 04:44:19;;;;;;;3.47;2.57;;;6.90;99.90;;;;;;4996864;28;20232;-78
2022/05/31 04:46:48;;;;;;;2.20;2.00;;;6.80;99.90;;;;;;5012886;28;20272;-78
2022/05/31 04:49:14;;;;;;;2.20;2.00;;;6.80;99.90;;;;;;5029085;28;20242;-77
2022/05/31 04:51:40;;;;;;;2.23;1.97;;;6.70;99.90;;;;;;5012332;28;20308;-78
2022/05/31 04:54:06;;;;;;;3.50;2.20;;;6.70;99.90;;;;;;5012398;28;20186;-77
2022/05/31 04:56:33;;;;;;;2.20;2.00;;;6.80;99.90;;;;;;5012938;28;20187;-77
2022/05/31 04:58:59;;;;;;;3.70;2.10;;;6.80;99.90;;;;;;5029043;28;20185;-77
2022/05/31 05:01:25;;;;;;;2.23;2.03;;;6.90;99.90;;;;;;5012525;28;20213;-77
2022/05/31 05:03:51;;;;;;;3.30;2.17;;;7.00;99.90;;;;;;4996403;28;20184;-77
2022/05/31 05:06:19;;;;;;;3.93;2.30;;;7.20;99.90;;;;;;5028708;28;20180;-77
2022/05/31 05:08:45;;;;;;;3.67;2.60;;;7.10;99.90;;;;;;5028553;28;20265;-77
2022/05/31 05:11:14;;;;;;;5.30;2.67;;;7.30;99.90;;;;;;5011786;28;20300;-77
2022/05/31 05:13:41;;;;;;;2.80;2.43;;;7.40;99.90;;;;;;5028173;28;20171;-77
2022/05/31 05:16:08;;;;;;;3.10;2.80;;;7.40;99.90;;;;;;4995316;28;20198;-77
2022/05/31 05:18:34;;;;;;;4.60;2.83;;;7.40;99.90;;;;;;5028480;28;20178;-77
2022/05/31 05:21:01;;;;;;;3.43;2.80;;;7.50;99.90;;;;;;5011880;28;20186;-77
2022/05/31 05:23:27;;;;;;;4.33;2.97;;;7.50;99.90;;;;;;5027227;28;20204;-77
2022/05/31 05:25:55;;;;;;;3.63;2.60;;;7.50;99.90;;;;;;5011335;28;20190;-77
2022/05/31 05:31:06;;;;;;;3.40;2.97;;;7.60;99.90;;;;;;5012021;28;20272;-77
2022/05/31 05:33:32;;;;;;;3.60;2.90;;;7.70;99.90;;;;;;5011257;28;20185;-77
2022/05/31 05:35:58;;;;;;;3.90;3.10;;;7.80;99.90;;;;;;5011743;28;20231;-78
2022/05/31 05:38:24;;;;;;;3.60;2.77;;;7.80;99.90;;;;;;4995119;28;20266;-80
2022/05/31 05:40:50;;;;;;;3.37;2.97;;;7.90;99.90;;;;;;5011307;28;20177;-77
2022/05/31 05:43:16;;;;;;;3.30;3.00;;;7.90;99.90;;;;;;5027630;28;20189;-78
2022/05/31 05:45:42;;;;;;;3.80;3.27;;;7.90;99.90;;;;;;5011285;28;20186;-78
2022/05/31 05:48:09;;;;;;;4.53;3.00;;;7.90;99.90;;;;;;5027879;28;20183;-77
2022/05/31 05:50:36;;;;;;;5.37;3.17;;;7.90;99.90;;;;;;5012403;28;20199;-77
2022/05/31 05:53:05;;;;;;;5.27;3.33;;;7.90;99.90;;;;;;5027794;28;20191;-78
2022/05/31 05:55:31;;;;;;;5.30;2.83;;;8.10;99.90;;;;;;5027462;28;20518;-77
2022/05/31 05:57:56;;;;;;;4.47;3.10;;;8.20;99.90;;;;;;4995256;28;20597;-78
2022/05/31 06:00:22;;;;;;;4.10;3.10;;;8.30;99.90;;;;;;5011592;28;20279;-80
2022/05/31 06:02:57;;;;;;;3.30;3.00;;;8.40;99.90;;;;;;5010820;28;20295;-78
2022/05/31 06:05:28;;;;;;;4.10;3.00;;;8.50;99.90;;;;;;5012444;28;20274;-78
2022/05/31 06:08:00;;;;;;;4.53;3.10;;;8.70;99.90;;;;;;5028469;28;20258;-78
2022/05/31 06:10:37;;;;;;;4.33;3.10;;;8.80;99.90;;;;;;5029150;28;20233;-78
2022/05/31 06:13:09;;;;;;;3.80;3.00;;;8.90;99.90;;;;;;5012921;28;20205;-79
2022/05/31 06:15:42;;;;;;;3.43;3.07;;;9.00;99.90;;;;;;5013869;28;20554;-79
2022/05/31 06:18:14;;;;;;;3.90;2.80;;;9.00;99.90;;;;;;5013546;28;20171;-79
2022/05/31 06:20:43;;;;;;;3.83;2.97;;;9.20;99.90;;;;;;5030181;28;20202;-79
2022/05/31 06:23:09;;;;;;;3.60;2.70;;;9.30;99.90;;;;;;5012383;28;20175;-78
2022/05/31 06:25:36;;;;;;;3.43;2.77;;;9.40;99.90;;;;;;4994536;28;20180;-78
2022/05/31 06:28:01;;;;;;;2.97;2.50;;;9.40;99.90;;;;;;4994859;28;20191;-78
2022/05/31 06:30:28;;;;;;;3.00;2.60;;;9.30;99.90;;;;;;4994614;28;20200;-78
2022/05/31 06:32:54;;;;;;;3.33;2.80;;;9.30;99.90;;;;;;5010976;28;20191;-78
2022/05/31 06:35:19;;;;;;;4.30;2.70;;;9.20;99.90;;;;;;4995761;28;20200;-77
2022/05/31 06:37:45;;;;;;;5.00;3.10;;;9.20;99.90;;;;;;5014938;28;20237;-78
2022/05/31 06:40:11;;;;;;;4.60;3.53;;;9.10;99.90;;;;;;5014645;28;20317;-78
2022/05/31 06:42:37;;;;;;;4.80;2.97;;;9.10;99.90;;;;;;5030958;28;20671;-78
2022/05/31 06:45:03;;;;;;;4.97;3.00;;;9.10;99.90;;;;;;4998349;28;20175;-78
2022/05/31 06:47:28;;;;;;;5.90;3.40;;;9.30;99.90;;;;;;5014362;28;20653;-78
2022/05/31 06:49:54;;;;;;;4.20;3.00;;;9.40;99.90;;;;;;5014282;28;20594;-78
2022/05/31 06:57:49;;;;;;;4.83;3.13;;;9.90;99.90;;;;;;5014885;28;20205;-78
2022/05/31 07:00:20;;;;;;;5.07;2.90;;;10.00;99.90;;;;;;5014668;28;20180;-77
2022/05/31 07:02:47;;;;;;;4.37;2.97;;;10.30;99.90;;;;;;5014789;28;20306;-78
2022/05/31 07:05:14;;;;;;;2.80;2.40;;;10.60;99.90;;;;;;5030912;28;20180;-77
2022/05/31 07:07:40;;;;;;;3.80;2.93;;;10.80;99.90;;;;;;5014109;28;20178;-78
2022/05/31 07:10:07;;;;;;;4.50;2.60;;;10.80;99.90;;;;;;5030403;28;20241;-78
2022/05/31 07:12:34;;;;;;;3.07;2.57;;;11.10;99.90;;;;;;5014960;28;20193;-77
2022/05/31 07:15:00;;;;;;;6.40;2.80;;;11.30;99.90;;;;;;5014379;28;20212;-77
2022/05/31 07:17:26;;;;;;;4.73;2.70;;;11.40;99.90;;;;;;5014211;28;20213;-78
2022/05/31 07:19:52;;;;;;;2.40;2.20;;;11.40;99.90;;;;;;5013896;28;20267;-78
2022/05/31 07:22:18;;;;;;;3.37;2.13;;;11.60;99.90;;;;;;5013535;28;20662;-78
2022/05/31 07:24:43;;;;;;;2.60;2.30;;;11.70;99.90;;;;;;5014474;28;20186;-79
2022/05/31 07:27:09;;;;;;;2.27;2.03;;;12.00;99.90;;;;;;5013761;28;20249;-78
2022/05/31 07:29:35;;;;;;;3.63;2.30;;;12.30;99.90;;;;;;5014038;28;20194;-78
2022/05/31 07:32:01;;;;;;;3.10;2.33;;;12.60;99.90;;;;;;4997060;28;20221;-78
2022/05/31 07:34:26;;;;;;;3.83;2.23;;;12.80;99.90;;;;;;5013616;28;20182;-78
2022/05/31 07:36:52;;;;;;;4.07;2.50;;;12.90;99.90;;;;;;5013595;28;20187;-78
2022/05/31 07:39:20;;;;;;;2.40;2.20;;;13.00;99.90;;;;;;5013616;28;20190;-78
2022/05/31 07:41:46;;;;;;;4.07;2.37;;;13.10;99.90;;;;;;5029713;28;20229;-78
2022/05/31 07:44:13;;;;;;;3.10;2.37;;;13.30;99.90;;;;;;5030108;28;20210;-78
2022/05/31 07:46:39;;;;;;;4.27;2.53;;;13.50;99.90;;;;;;5012612;28;20187;-78
2022/05/31 07:49:05;;;;;;;3.10;2.40;;;13.70;99.90;;;;;;5013392;28;20191;-78
2022/05/31 07:51:31;;;;;;;2.37;2.17;;;13.90;99.90;;;;;;5013118;28;20206;-78
2022/05/31 07:53:56;;;;;;;2.67;2.33;;;14.10;99.90;;;;;;5013284;28;20190;-79
2022/05/31 07:56:22;;;;;;;2.23;1.80;;;14.30;99.90;;;;;;4997054;28;20183;-78
2022/05/31 07:58:48;;;;;;;2.10;1.90;;;14.40;99.90;;;;;;5014670;28;20214;-78
2022/05/31 08:01:17;;;;;;;2.23;2.03;;;14.60;99.90;;;;;;5013701;28;20257;-79
2022/05/31 08:03:44;;;;;;;2.13;1.93;;;14.60;99.90;;;;;;5013422;28;20190;-78
2022/05/31 08:06:13;;;;;;;3.40;1.90;;;14.70;99.90;;;;;;5013254;28;20214;-78
2022/05/31 08:08:39;;;;;;;2.90;1.90;;;14.70;99.90;;;;;;5029911;28;20189;-78
2022/05/31 08:11:11;;;;;;;2.43;1.70;;;14.80;99.90;;;;;;5013181;28;20210;-78
2022/05/31 08:13:38;;;;;;;3.43;2.07;;;15.00;99.90;;;;;;5012924;28;20757;-78
2022/05/31 08:16:05;;;;;;;3.47;2.53;;;15.10;99.90;;;;;;5029717;28;20176;-78
2022/05/31 08:18:31;;;;;;;2.27;2.00;;;15.30;99.90;;;;;;5013239;28;20179;-78
2022/05/31 08:21:01;;;;;;;3.50;2.07;;;15.30;99.90;;;;;;5014359;28;20175;-78
2022/05/31 08:23:28;;;;;;;2.27;2.07;;;15.40;99.90;;;;;;4997288;28;20183;-78
2022/05/31 08:25:54;;;;;;;2.00;1.60;;;15.40;99.90;;;;;;5029996;28;20190;-78
2022/05/31 08:28:21;;;;;;;2.10;1.80;;;15.50;99.90;;;;;;5013252;28;20190;-78
2022/05/31 08:30:48;;;;;;;2.00;1.80;;;15.70;99.90;;;;;;5029452;28;20293;-78
2022/05/31 08:33:14;;;;;;;1.80;1.70;;;15.80;99.90;;;;;;5028993;28;20703;-78
2022/05/31 08:35:40;;;;;;;1.90;1.67;;;15.90;99.90;;;;;;5012773;28;20191;-78
2022/05/31 08:38:05;;;;;;;1.97;1.70;;;16.00;99.90;;;;;;4996516;28;20507;-78
2022/05/31 08:40:40;;;;;;;2.23;1.50;;;16.20;99.90;;;;;;4996571;28;20212;-78
2022/05/31 08:43:07;;;;;;;1.93;1.50;;;16.30;99.90;;;;;;5028793;28;20198;-78
2022/05/31 08:45:57;;;;;;;1.77;1.50;;;16.30;99.90;;;;;;5012931;28;20270;-78
2022/05/31 08:48:38;;;;;;;1.53;1.43;;;16.60;99.90;;;;;;5029028;28;20614;-78
2022/05/31 08:57:02;;;;;;;1.67;1.57;;;17.10;99.90;;;;;;5000274;28;20182;-78
2022/05/31 08:59:51;;;;;;;2.03;1.67;;;17.00;99.90;;;;;;5012258;28;20671;-78
2022/05/31 09:02:39;;;;;;;1.60;1.50;;;16.90;99.90;;;;;;5006077;28;20674;-78
2022/05/31 09:05:14;;;;;;;2.37;1.63;;;16.90;99.90;;;;;;5028459;28;20187;-78
2022/05/31 09:07:50;;;;;;;2.13;1.60;;;16.90;99.90;;;;;;5029004;28;20178;-78
2022/05/31 09:10:35;;;;;;;2.60;1.70;;;17.00;99.90;;;;;;5012774;28;20210;-78
2022/05/31 09:13:25;;;;;;;1.77;1.57;;;17.10;99.90;;;;;;5028326;28;20199;-78
2022/05/31 09:16:00;;;;;;;2.03;1.60;;;17.00;99.90;;;;;;5028542;28;20213;-78
2022/05/31 09:18:52;;;;;;;3.20;1.50;;;17.00;99.90;;;;;;5013266;28;20182;-78
2022/05/31 09:21:37;;;;;;;3.00;1.50;;;16.90;99.90;;;;;;5012129;28;20234;-78
2022/05/31 09:24:06;;;;;;;1.60;1.50;;;17.10;99.90;;;;;;5012455;28;20184;-78
2022/05/31 09:26:38;;;;;;;1.50;1.40;;;17.60;99.90;;;;;;5012873;28;20179;-78
2022/05/31 09:29:16;;;;;;;2.27;1.87;;;18.00;99.90;;;;;;5013953;28;20258;-78
2022/05/31 09:32:19;;;;;;;1.60;1.43;;;18.50;99.90;;;;;;5012135;28;20215;-78
2022/05/31 09:35:09;;;;;;;4.17;1.90;;;18.60;99.90;;;;;;5012698;28;20233;-78
2022/05/31 09:37:56;;;;;;;2.10;1.60;;;18.40;99.90;;;;;;5028339;28;20289;-78
2022/05/31 09:40:35;;;;;;;2.20;1.50;;;18.60;99.90;;;;;;5012631;28;20171;-78
2022/05/31 09:43:01;;;;;;;4.03;1.70;;;19.20;99.90;;;;;;5011114;28;20298;-78
2022/05/31 09:45:32;;;;;;;1.83;1.60;;;19.50;99.90;;;;;;5012553;28;20254;-78
2022/05/31 09:48:00;;;;;;;2.00;1.43;;;19.80;99.90;;;;;;5027875;28;20206;-78
2022/05/31 09:50:28;;;;;;;1.60;1.40;;;19.80;99.90;;;;;;5027623;28;20198;-78
2022/05/31 09:52:57;;;;;;;1.30;1.20;;;19.50;99.90;;;;;;5011273;28;20195;-78
2022/05/31 09:58:36;;;;;;;2.67;1.37;;;19.20;99.90;;;;;;5011857;28;20596;-78
2022/05/31 10:01:12;;;;;;;2.50;1.60;;;19.40;99.90;;;;;;5011160;28;20232;-78
2022/05/31 10:03:44;;;;;;;1.33;1.23;;;19.50;99.90;;;;;;5012392;28;20544;-78
2022/05/31 10:06:13;;;;;;;1.60;1.40;;;19.70;99.90;;;;;;5027865;28;20237;-79
2022/05/31 10:08:38;;;;;;;1.63;1.50;;;20.00;99.90;;;;;;5012779;28;20199;-80
2022/05/31 10:11:10;;;;;;;3.40;1.80;;;20.40;99.90;;;;;;5014603;28;20614;-78
2022/05/31 10:13:39;;;;;;;2.17;1.77;;;20.50;99.90;;;;;;5016071;28;20279;-78
2022/05/31 10:16:30;;;;;;;1.53;1.43;;;20.10;99.00;;;;;;5031830;28;20174;-78
2022/05/31 10:18:58;;;;;;;2.70;1.57;;;19.30;99.60;;;;;;5009715;28;20249;-78
2022/05/31 10:21:33;;;;;;;2.00;1.47;;;19.50;99.90;;;;;;5031632;28;20191;-79
2022/05/31 10:24:08;;;;;;;1.67;1.30;;;19.30;99.90;;;;;;5031545;28;20177;-79
2022/05/31 10:26:40;;;;;;;1.87;1.50;;;19.20;99.90;;;;;;5015240;28;20171;-78
2022/05/31 10:29:17;;;;;;;2.27;1.70;;;19.00;98.50;;;;;;5031574;28;20174;-78
2022/05/31 10:31:46;;;;;;;2.30;1.60;;;18.70;98.40;;;;;;5031873;28;20709;-79
2022/05/31 10:34:40;;;;;;;2.43;1.60;;;18.70;98.60;;;;;;5016006;28;20177;-80
2022/05/31 10:37:26;;;;;;;1.93;1.43;;;18.70;98.40;;;;;;5031985;28;20720;-79
2022/05/31 10:40:10;;;;;;;1.77;1.30;;;18.60;99.80;;;;;;5031523;28;20254;-79
2022/05/31 10:42:42;;;;;;;3.67;1.50;;;18.50;99.30;;;;;;5031022;28;20191;-79
2022/05/31 10:45:12;;;;;;;2.70;1.60;;;18.50;98.80;;;;;;5031438;28;20171;-79
2022/05/31 10:47:38;;;;;;;1.30;1.20;;;18.50;98.90;;;;;;5031357;28;20202;-79
2022/05/31 10:50:07;;;;;;;1.67;1.30;;;18.50;98.20;;;;;;4998743;28;20646;-79
2022/05/31 10:53:03;;;;;;;1.50;1.40;;;18.60;98.40;;;;;;4999378;28;20195;-79
2022/05/31 10:55:42;;;;;;;1.50;1.40;;;19.20;97.70;;;;;;5031036;28;20171;-79
2022/05/31 10:58:29;;;;;;;1.57;1.20;;;19.30;94.90;;;;;;5031443;28;20189;-78
2022/05/31 11:01:26;;;;;;;3.20;1.30;;;18.90;95.70;;;;;;5014164;28;20573;-78
2022/05/31 11:04:15;;;;;;;2.17;1.53;;;18.50;96.90;;;;;;5031083;28;20183;-78
2022/05/31 11:07:05;;;;;;;1.33;1.23;;;18.30;95.70;;;;;;5015638;28;20178;-78
2022/05/31 11:12:53;;;;;;;1.83;1.40;;;18.70;98.20;;;;;;5015448;28;20222;-78
2022/05/31 11:15:43;;;;;;;2.40;1.40;;;19.80;95.00;;;;;;5030892;28;20170;-78
2022/05/31 11:18:24;;;;;;;2.00;1.63;;;20.10;92.80;;;;;;5014797;28;20175;-78
2022/05/31 11:21:12;;;;;;;2.63;1.37;;;19.50;93.60;;;;;;5031015;28;20182;-78
2022/05/31 11:23:52;;;;;;;1.80;1.30;;;19.40;96.80;;;;;;5030749;28;20175;-78
2022/05/31 11:26:27;;;;;;;1.40;1.30;;;19.30;98.10;;;;;;5031735;28;20219;-80
2022/05/31 11:29:15;;;;;;;1.47;1.37;;;19.00;98.60;;;;;;5016909;28;20640;-79
2022/05/31 11:31:58;;;;;;;2.57;1.40;;;18.80;98.50;;;;;;5015193;28;20282;-79
2022/05/31 11:34:48;;;;;;;1.60;1.30;;;18.70;96.80;;;;;;5017065;28;20170;-79
2022/05/31 11:37:25;;;;;;;2.03;1.40;;;18.70;96.30;;;;;;5031602;28;20271;-79
2022/05/31 11:40:25;;;;;;;3.47;1.40;;;18.70;96.50;;;;;;5015043;28;20194;-80
2022/05/31 11:43:09;;;;;;;2.10;1.30;;;18.60;95.60;;;;;;5015250;28;20198;-78
2022/05/31 11:45:53;;;;;;;1.70;1.20;;;18.70;97.30;;;;;;5014060;28;20559;-79
2022/05/31 11:48:22;;;;;;;1.33;1.20;;;18.80;99.30;;;;;;5031099;28;20198;-79
2022/05/31 11:51:09;;;;;;;1.70;1.40;;;18.80;97.60;;;;;;5015967;28;20191;-78
2022/05/31 11:53:59;;;;;;;3.10;1.57;;;18.80;97.30;;;;;;5014285;28;20552;-78
2022/05/31 11:56:28;;;;;;;1.97;1.40;;;18.80;98.20;;;;;;5016084;28;20246;-78
2022/05/31 11:59:06;;;;;;;2.70;1.47;;;18.70;99.70;;;;;;5031181;28;20175;-79
2022/05/31 12:01:38;;;;;;;2.50;1.50;;;18.70;99.90;;;;;;5014566;28;20214;-79
2022/05/31 12:04:07;;;;;;;1.63;1.40;;;18.60;98.80;;;;;;5030401;28;20183;-79
2022/05/31 12:06:45;;;;;;;3.57;1.40;;;18.40;98.90;;;;;;5014272;28;20245;-79
2022/05/31 12:09:20;;;;;;;2.93;1.60;;;18.30;99.30;;;;;;5031647;28;20175;-83
2022/05/31 12:11:54;;;;;;;2.10;1.30;;;18.20;99.60;;;;;;5014375;28;20293;-78
2022/05/31 12:14:22;;;;;;;1.73;1.50;;;18.10;99.90;;;;;;5029362;28;20174;-78
2022/05/31 12:16:50;;;;;;;1.50;1.40;;;18.10;99.90;;;;;;5029077;28;20179;-78
2022/05/31 12:19:44;;;;;;;3.20;1.40;;;18.10;99.90;;;;;;5013003;28;20557;-78
2022/05/31 12:22:27;;;;;;;2.30;1.67;;;18.10;99.90;;;;;;5028768;28;20195;-78
2022/05/31 12:25:13;;;;;;;3.00;1.40;;;18.10;99.90;;;;;;5029276;28;20175;-78
2022/05/31 12:28:03;;;;;;;2.43;1.50;;;18.00;99.90;;;;;;5015425;28;20266;-78
2022/05/31 12:30:33;;;;;;;2.77;1.50;;;18.10;99.90;;;;;;5029046;28;20209;-77
2022/05/31 12:32:59;;;;;;;2.87;1.73;;;18.00;99.90;;;;;;5012373;28;20187;-78
2022/05/31 12:35:31;;;;;;;2.10;1.80;;;18.00;99.90;;;;;;5012532;28;20175;-77
2022/05/31 12:38:02;;;;;;;1.70;1.60;;;18.40;99.90;;;;;;5012818;28;20721;-78
2022/05/31 12:40:34;;;;;;;2.07;1.70;;;18.60;99.90;;;;;;5012630;28;20179;-77
2022/05/31 12:43:07;;;;;;;1.70;1.50;;;19.10;99.90;;;;;;5012163;28;20202;-78
2022/05/31 12:45:33;;;;;;;1.80;1.40;;;19.70;99.90;;;;;;5012495;28;20557;-78
2022/05/31 12:48:19;;;;;;;1.60;1.50;;;20.20;99.90;;;;;;5012339;28;20167;-78
2022/05/31 12:50:46;;;;;;;2.33;1.50;;;20.80;99.90;;;;;;5012599;28;20211;-78
2022/05/31 12:55:37;;;;;;;1.60;1.50;;;21.50;99.90;;;;;;5012530;28;20185;-78
2022/05/31 12:58:30;;;;;;;2.30;1.67;;;22.00;99.90;;;;;;5011939;28;20181;-78
2022/05/31 13:00:56;;;;;;;2.90;1.85;;;22.20;99.90;;;;;;5028652;28;20221;-78
2022/05/31 13:03:34;;;;;;;1.98;1.60;;;21.50;99.90;;;;;;5013264;28;20270;-78
2022/05/31 13:06:01;;;;;;;1.65;1.40;;;21.70;99.90;;;;;;5013218;28;20178;-78
2022/05/31 13:08:48;;;;;;;2.67;1.45;;;21.80;99.90;;;;;;5012075;28;20186;-78
2022/05/31 13:19:48;;;;;;;1.95;1.67;;;21.50;98.90;;;;;;5012368;28;20182;-78
2022/05/31 13:22:17;;;;;;;4.00;1.90;;;21.50;97.50;;;;;;4995386;28;20199;-78
2022/05/31 13:25:06;;;;;;;2.10;1.90;;;21.50;97.30;;;;;;5012423;28;20214;-78
2022/05/31 13:27:36;;;;;;;2.28;1.70;;;21.40;95.80;;;;;;5011874;28;20653;-78
2022/05/31 13:30:14;;;;;;;3.50;1.92;;;21.60;97.00;;;;;;4995767;28;20615;-78
2022/05/31 13:32:40;;;;;;;1.98;1.52;;;21.50;94.50;;;;;;5028051;28;20206;-78
2022/05/31 13:35:24;;;;;;;2.00;1.60;;;21.30;96.00;;;;;;5028155;28;20171;-78
2022/05/31 13:38:00;;;;;;;2.58;1.90;;;20.80;96.50;;;;;;5012142;28;20240;-78
2022/05/31 13:40:36;;;;;;;2.00;1.70;;;20.40;97.40;;;;;;5010523;28;20178;-78
2022/05/31 13:43:06;;;;;;;2.90;1.80;;;20.50;97.90;;;;;;5011058;28;20191;-79
2022/05/31 13:45:33;;;;;;;3.08;1.70;;;20.40;99.90;;;;;;5010515;28;20175;-78
2022/05/31 13:48:09;;;;;;;3.72;1.77;;;19.40;99.90;;;;;;5011073;28;20172;-78